sensor_id;sensor_type;location;lat;lon;timestamp;P1;durP1;ratioP1;P2;durP2;ratioP2
6527;SDS011;64597;42.664;23.256;2023-04-24T00:01:15;10.05;;;6.22;;
6527;SDS011;64597;42.664;23.256;2023-04-24T00:03:44;9.73;;;6.45;;
6527;SDS011;64597;42.664;23.256;2023-04-24T00:06:10;9.30;;;6.40;;
6527;SDS011;64597;42.664;23.256;2023-04-24T00:08:37;8.27;;;5.63;;
6527;SDS011;64597;42.664;23.256;2023-04-24T00:11:08;10.52;;;6.47;;
6527;SDS011;64597;42.664;23.256;2023-04-24T00:13:36;8.68;;;5.65;;
6527;SDS011;64597;42.664;23.256;2023-04-24T00:16:09;9.88;;;5.82;;
6527;SDS011;64597;42.664;23.256;2023-04-24T00:18:35;8.55;;;5.55;;
6527;SDS011;64597;42.664;23.256;2023-04-24T00:21:07;9.55;;;5.80;;
6527;SDS011;64597;42.664;23.256;2023-04-24T00:23:33;8.90;;;5.85;;
6527;SDS011;64597;42.664;23.256;2023-04-24T00:26:01;10.18;;;6.03;;
6527;SDS011;64597;42.664;23.256;2023-04-24T00:28:31;9.80;;;6.10;;
6527;SDS011;64597;42.664;23.256;2023-04-24T00:31:04;7.82;;;5.68;;
6527;SDS011;64597;42.664;23.256;2023-04-24T00:33:35;10.65;;;6.50;;
6527;SDS011;64597;42.664;23.256;2023-04-24T00:36:07;8.25;;;5.82;;
6527;SDS011;64597;42.664;23.256;2023-04-24T00:38:37;9.98;;;5.65;;
6527;SDS011;64597;42.664;23.256;2023-04-24T00:41:12;10.10;;;6.65;;
6527;SDS011;64597;42.664;23.256;2023-04-24T00:43:47;9.35;;;5.63;;
6527;SDS011;64597;42.664;23.256;2023-04-24T00:46:15;7.53;;;5.63;;
6527;SDS011;64597;42.664;23.256;2023-04-24T00:48:48;8.48;;;5.80;;
6527;SDS011;64597;42.664;23.256;2023-04-24T00:51:14;8.93;;;6.20;;
6527;SDS011;64597;42.664;23.256;2023-04-24T00:53:45;9.43;;;5.82;;
6527;SDS011;64597;42.664;23.256;2023-04-24T00:56:11;9.27;;;5.32;;
6527;SDS011;64597;42.664;23.256;2023-04-24T00:58:38;10.05;;;5.60;;
6527;SDS011;64597;42.664;23.256;2023-04-24T01:01:11;13.30;;;6.32;;
6527;SDS011;64597;42.664;23.256;2023-04-24T01:03:40;12.00;;;6.13;;
6527;SDS011;64597;42.664;23.256;2023-04-24T01:06:08;12.23;;;6.07;;
6527;SDS011;64597;42.664;23.256;2023-04-24T01:08:38;10.68;;;6.65;;
6527;SDS011;64597;42.664;23.256;2023-04-24T01:11:09;8.75;;;5.55;;
6527;SDS011;64597;42.664;23.256;2023-04-24T01:13:42;9.93;;;6.25;;
6527;SDS011;64597;42.664;23.256;2023-04-24T01:16:14;9.00;;;5.93;;
6527;SDS011;64597;42.664;23.256;2023-04-24T01:18:45;11.10;;;6.88;;
6527;SDS011;64597;42.664;23.256;2023-04-24T01:21:17;9.88;;;7.20;;
6527;SDS011;64597;42.664;23.256;2023-04-24T01:23:48;9.88;;;6.78;;
6527;SDS011;64597;42.664;23.256;2023-04-24T01:26:19;9.80;;;6.10;;
6527;SDS011;64597;42.664;23.256;2023-04-24T01:28:46;10.07;;;7.05;;
6527;SDS011;64597;42.664;23.256;2023-04-24T01:31:16;11.98;;;7.07;;
6527;SDS011;64597;42.664;23.256;2023-04-24T01:33:47;11.52;;;6.82;;
6527;SDS011;64597;42.664;23.256;2023-04-24T01:36:14;12.98;;;8.00;;
6527;SDS011;64597;42.664;23.256;2023-04-24T01:38:51;11.40;;;7.00;;
6527;SDS011;64597;42.664;23.256;2023-04-24T01:41:22;10.27;;;6.68;;
6527;SDS011;64597;42.664;23.256;2023-04-24T01:43:52;9.30;;;6.40;;
6527;SDS011;64597;42.664;23.256;2023-04-24T01:46:20;11.60;;;6.78;;
6527;SDS011;64597;42.664;23.256;2023-04-24T01:48:51;9.15;;;7.18;;
6527;SDS011;64597;42.664;23.256;2023-04-24T01:51:21;9.38;;;7.07;;
6527;SDS011;64597;42.664;23.256;2023-04-24T01:53:51;11.38;;;6.78;;
6527;SDS011;64597;42.664;23.256;2023-04-24T01:56:21;11.30;;;6.78;;
6527;SDS011;64597;42.664;23.256;2023-04-24T01:58:51;12.30;;;7.43;;
6527;SDS011;64597;42.664;23.256;2023-04-24T02:01:21;8.40;;;6.75;;
6527;SDS011;64597;42.664;23.256;2023-04-24T02:03:49;9.77;;;6.75;;
6527;SDS011;64597;42.664;23.256;2023-04-24T02:06:17;10.25;;;6.93;;
6527;SDS011;64597;42.664;23.256;2023-04-24T02:08:47;9.35;;;6.43;;
6527;SDS011;64597;42.664;23.256;2023-04-24T02:11:21;10.13;;;7.65;;
6527;SDS011;64597;42.664;23.256;2023-04-24T02:13:51;9.55;;;7.32;;
6527;SDS011;64597;42.664;23.256;2023-04-24T02:16:23;8.27;;;5.95;;
6527;SDS011;64597;42.664;23.256;2023-04-24T02:18:51;8.70;;;6.50;;
6527;SDS011;64597;42.664;23.256;2023-04-24T02:21:19;9.98;;;6.72;;
6527;SDS011;64597;42.664;23.256;2023-04-24T02:23:47;9.88;;;6.68;;
6527;SDS011;64597;42.664;23.256;2023-04-24T02:26:18;8.27;;;6.82;;
6527;SDS011;64597;42.664;23.256;2023-04-24T02:28:49;10.35;;;6.63;;
6527;SDS011;64597;42.664;23.256;2023-04-24T02:31:21;11.77;;;6.57;;
6527;SDS011;64597;42.664;23.256;2023-04-24T02:33:48;13.10;;;6.72;;
6527;SDS011;64597;42.664;23.256;2023-04-24T02:36:16;10.05;;;6.82;;
6527;SDS011;64597;42.664;23.256;2023-04-24T02:38:46;10.50;;;7.15;;
6527;SDS011;64597;42.664;23.256;2023-04-24T02:41:17;12.55;;;7.43;;
6527;SDS011;64597;42.664;23.256;2023-04-24T02:43:45;15.35;;;7.07;;
6527;SDS011;64597;42.664;23.256;2023-04-24T02:46:13;10.13;;;7.15;;
6527;SDS011;64597;42.664;23.256;2023-04-24T02:48:41;9.43;;;7.53;;
6527;SDS011;64597;42.664;23.256;2023-04-24T02:51:08;10.65;;;7.10;;
6527;SDS011;64597;42.664;23.256;2023-04-24T02:53:37;10.90;;;7.00;;
6527;SDS011;64597;42.664;23.256;2023-04-24T02:56:05;11.25;;;7.55;;
6527;SDS011;64597;42.664;23.256;2023-04-24T02:58:31;11.93;;;7.72;;
6527;SDS011;64597;42.664;23.256;2023-04-24T03:01:03;10.50;;;7.13;;
6527;SDS011;64597;42.664;23.256;2023-04-24T03:03:35;10.77;;;7.45;;
6527;SDS011;64597;42.664;23.256;2023-04-24T03:06:04;10.02;;;7.47;;
6527;SDS011;64597;42.664;23.256;2023-04-24T03:08:35;10.52;;;6.95;;
6527;SDS011;64597;42.664;23.256;2023-04-24T03:11:05;12.73;;;7.18;;
6527;SDS011;64597;42.664;23.256;2023-04-24T03:13:31;11.43;;;7.22;;
6527;SDS011;64597;42.664;23.256;2023-04-24T03:15:58;8.93;;;7.20;;
6527;SDS011;64597;42.664;23.256;2023-04-24T03:18:25;11.13;;;7.18;;
6527;SDS011;64597;42.664;23.256;2023-04-24T03:20:52;9.25;;;7.13;;
6527;SDS011;64597;42.664;23.256;2023-04-24T03:23:19;11.45;;;6.60;;
6527;SDS011;64597;42.664;23.256;2023-04-24T03:25:47;9.55;;;6.05;;
6527;SDS011;64597;42.664;23.256;2023-04-24T03:28:18;10.10;;;6.28;;
6527;SDS011;64597;42.664;23.256;2023-04-24T03:30:54;9.10;;;6.07;;
6527;SDS011;64597;42.664;23.256;2023-04-24T03:33:20;8.93;;;6.72;;
6527;SDS011;64597;42.664;23.256;2023-04-24T03:35:53;9.70;;;6.47;;
6527;SDS011;64597;42.664;23.256;2023-04-24T03:38:23;9.55;;;6.38;;
6527;SDS011;64597;42.664;23.256;2023-04-24T03:40:56;8.73;;;6.20;;
6527;SDS011;64597;42.664;23.256;2023-04-24T03:43:26;9.80;;;6.60;;
6527;SDS011;64597;42.664;23.256;2023-04-24T03:45:56;9.48;;;5.70;;
6527;SDS011;64597;42.664;23.256;2023-04-24T03:48:26;7.88;;;4.45;;
6527;SDS011;64597;42.664;23.256;2023-04-24T03:50:52;10.52;;;6.88;;
6527;SDS011;64597;42.664;23.256;2023-04-24T03:53:19;8.35;;;5.90;;
6527;SDS011;64597;42.664;23.256;2023-04-24T03:55:47;9.20;;;5.40;;
6527;SDS011;64597;42.664;23.256;2023-04-24T03:58:13;7.82;;;5.03;;
6527;SDS011;64597;42.664;23.256;2023-04-24T04:00:40;7.50;;;5.63;;
6527;SDS011;64597;42.664;23.256;2023-04-24T04:03:07;8.77;;;5.75;;
6527;SDS011;64597;42.664;23.256;2023-04-24T04:05:33;10.70;;;6.43;;
6527;SDS011;64597;42.664;23.256;2023-04-24T04:07:59;8.27;;;5.10;;
6527;SDS011;64597;42.664;23.256;2023-04-24T04:10:27;8.25;;;5.63;;
6527;SDS011;64597;42.664;23.256;2023-04-24T04:12:54;6.70;;;5.90;;
6527;SDS011;64597;42.664;23.256;2023-04-24T04:15:23;8.65;;;6.28;;
6527;SDS011;64597;42.664;23.256;2023-04-24T04:17:49;10.93;;;5.65;;
6527;SDS011;64597;42.664;23.256;2023-04-24T04:20:15;10.05;;;6.65;;
6527;SDS011;64597;42.664;23.256;2023-04-24T04:22:42;9.77;;;6.57;;
6527;SDS011;64597;42.664;23.256;2023-04-24T04:25:08;10.60;;;7.00;;
6527;SDS011;64597;42.664;23.256;2023-04-24T04:27:34;11.48;;;6.40;;
6527;SDS011;64597;42.664;23.256;2023-04-24T04:30:01;8.50;;;6.88;;
6527;SDS011;64597;42.664;23.256;2023-04-24T04:32:33;10.23;;;6.93;;
6527;SDS011;64597;42.664;23.256;2023-04-24T04:34:59;9.60;;;6.93;;
6527;SDS011;64597;42.664;23.256;2023-04-24T04:37:34;8.77;;;6.63;;
6527;SDS011;64597;42.664;23.256;2023-04-24T04:40:01;8.48;;;6.45;;
6527;SDS011;64597;42.664;23.256;2023-04-24T04:42:37;10.82;;;6.43;;
6527;SDS011;64597;42.664;23.256;2023-04-24T04:45:06;12.93;;;6.95;;
6527;SDS011;64597;42.664;23.256;2023-04-24T04:47:36;8.90;;;6.85;;
6527;SDS011;64597;42.664;23.256;2023-04-24T04:50:03;11.55;;;7.00;;
6527;SDS011;64597;42.664;23.256;2023-04-24T04:52:31;10.75;;;7.18;;
6527;SDS011;64597;42.664;23.256;2023-04-24T04:54:58;9.50;;;6.25;;
6527;SDS011;64597;42.664;23.256;2023-04-24T04:57:25;9.98;;;6.22;;
6527;SDS011;64597;42.664;23.256;2023-04-24T04:59:56;10.43;;;6.53;;
6527;SDS011;64597;42.664;23.256;2023-04-24T05:02:22;8.40;;;5.72;;
6527;SDS011;64597;42.664;23.256;2023-04-24T05:04:48;10.23;;;6.35;;
6527;SDS011;64597;42.664;23.256;2023-04-24T05:07:15;8.70;;;6.20;;
6527;SDS011;64597;42.664;23.256;2023-04-24T05:09:40;11.68;;;7.50;;
6527;SDS011;64597;42.664;23.256;2023-04-24T05:12:06;13.38;;;6.90;;
6527;SDS011;64597;42.664;23.256;2023-04-24T05:14:32;11.13;;;7.05;;
6527;SDS011;64597;42.664;23.256;2023-04-24T05:16:58;13.07;;;6.65;;
6527;SDS011;64597;42.664;23.256;2023-04-24T05:19:25;10.20;;;6.55;;
6527;SDS011;64597;42.664;23.256;2023-04-24T05:21:51;9.55;;;5.90;;
6527;SDS011;64597;42.664;23.256;2023-04-24T05:24:18;10.30;;;6.50;;
6527;SDS011;64597;42.664;23.256;2023-04-24T05:26:43;13.15;;;7.07;;
6527;SDS011;64597;42.664;23.256;2023-04-24T05:29:09;11.20;;;6.57;;
6527;SDS011;64597;42.664;23.256;2023-04-24T05:31:35;14.27;;;7.45;;
6527;SDS011;64597;42.664;23.256;2023-04-24T05:34:00;13.40;;;7.43;;
6527;SDS011;64597;42.664;23.256;2023-04-24T05:36:26;12.15;;;7.25;;
6527;SDS011;64597;42.664;23.256;2023-04-24T05:38:53;12.43;;;6.95;;
6527;SDS011;64597;42.664;23.256;2023-04-24T05:41:18;10.95;;;6.70;;
6527;SDS011;64597;42.664;23.256;2023-04-24T05:43:44;9.40;;;6.45;;
6527;SDS011;64597;42.664;23.256;2023-04-24T05:46:11;10.48;;;6.57;;
6527;SDS011;64597;42.664;23.256;2023-04-24T05:48:38;10.77;;;7.13;;
6527;SDS011;64597;42.664;23.256;2023-04-24T05:51:04;11.68;;;6.80;;
6527;SDS011;64597;42.664;23.256;2023-04-24T05:53:29;8.43;;;5.43;;
6527;SDS011;64597;42.664;23.256;2023-04-24T05:55:55;8.38;;;4.70;;
6527;SDS011;64597;42.664;23.256;2023-04-24T05:58:21;5.65;;;4.63;;
6527;SDS011;64597;42.664;23.256;2023-04-24T06:00:47;7.70;;;4.47;;
6527;SDS011;64597;42.664;23.256;2023-04-24T06:03:13;5.68;;;5.07;;
6527;SDS011;64597;42.664;23.256;2023-04-24T06:05:39;9.82;;;5.25;;
6527;SDS011;64597;42.664;23.256;2023-04-24T06:08:05;7.15;;;5.00;;
6527;SDS011;64597;42.664;23.256;2023-04-24T06:10:31;6.30;;;4.90;;
6527;SDS011;64597;42.664;23.256;2023-04-24T06:12:56;8.18;;;5.15;;
6527;SDS011;64597;42.664;23.256;2023-04-24T06:15:27;9.45;;;6.20;;
6527;SDS011;64597;42.664;23.256;2023-04-24T06:17:59;9.48;;;5.65;;
6527;SDS011;64597;42.664;23.256;2023-04-24T06:20:25;9.13;;;5.82;;
6527;SDS011;64597;42.664;23.256;2023-04-24T06:22:51;8.77;;;6.00;;
6527;SDS011;64597;42.664;23.256;2023-04-24T06:25:16;8.32;;;5.63;;
6527;SDS011;64597;42.664;23.256;2023-04-24T06:27:42;11.80;;;6.50;;
6527;SDS011;64597;42.664;23.256;2023-04-24T06:30:07;10.07;;;5.63;;
6527;SDS011;64597;42.664;23.256;2023-04-24T06:32:34;11.88;;;5.93;;
6527;SDS011;64597;42.664;23.256;2023-04-24T06:35:00;7.68;;;5.50;;
6527;SDS011;64597;42.664;23.256;2023-04-24T06:37:26;17.88;;;6.05;;
6527;SDS011;64597;42.664;23.256;2023-04-24T06:39:51;12.60;;;6.35;;
6527;SDS011;64597;42.664;23.256;2023-04-24T06:42:17;10.00;;;6.35;;
6527;SDS011;64597;42.664;23.256;2023-04-24T06:44:43;8.85;;;6.50;;
6527;SDS011;64597;42.664;23.256;2023-04-24T06:47:09;8.90;;;5.80;;
6527;SDS011;64597;42.664;23.256;2023-04-24T06:49:38;7.35;;;6.07;;
6527;SDS011;64597;42.664;23.256;2023-04-24T06:52:07;15.10;;;6.63;;
6527;SDS011;64597;42.664;23.256;2023-04-24T06:54:36;10.88;;;6.90;;
6527;SDS011;64597;42.664;23.256;2023-04-24T06:57:02;12.18;;;7.30;;
6527;SDS011;64597;42.664;23.256;2023-04-24T06:59:28;9.70;;;6.20;;
6527;SDS011;64597;42.664;23.256;2023-04-24T07:01:55;13.68;;;8.05;;
6527;SDS011;64597;42.664;23.256;2023-04-24T07:04:22;8.95;;;6.93;;
6527;SDS011;64597;42.664;23.256;2023-04-24T07:06:49;11.00;;;6.03;;
6527;SDS011;64597;42.664;23.256;2023-04-24T07:09:16;7.72;;;6.07;;
6527;SDS011;64597;42.664;23.256;2023-04-24T07:11:44;10.55;;;5.90;;
6527;SDS011;64597;42.664;23.256;2023-04-24T07:14:10;9.27;;;6.43;;
6527;SDS011;64597;42.664;23.256;2023-04-24T07:16:36;12.77;;;6.40;;
6527;SDS011;64597;42.664;23.256;2023-04-24T07:19:02;12.68;;;6.00;;
6527;SDS011;64597;42.664;23.256;2023-04-24T07:21:27;8.98;;;6.03;;
6527;SDS011;64597;42.664;23.256;2023-04-24T07:23:53;7.85;;;6.03;;
6527;SDS011;64597;42.664;23.256;2023-04-24T07:26:19;7.82;;;5.38;;
6527;SDS011;64597;42.664;23.256;2023-04-24T07:28:45;7.50;;;6.25;;
6527;SDS011;64597;42.664;23.256;2023-04-24T07:31:11;9.57;;;6.00;;
6527;SDS011;64597;42.664;23.256;2023-04-24T07:33:37;10.50;;;6.90;;
6527;SDS011;64597;42.664;23.256;2023-04-24T07:36:03;9.73;;;5.78;;
6527;SDS011;64597;42.664;23.256;2023-04-24T07:38:30;7.85;;;5.95;;
6527;SDS011;64597;42.664;23.256;2023-04-24T07:40:56;13.23;;;6.53;;
6527;SDS011;64597;42.664;23.256;2023-04-24T07:43:21;7.95;;;5.78;;
6527;SDS011;64597;42.664;23.256;2023-04-24T07:45:49;6.55;;;5.80;;
6527;SDS011;64597;42.664;23.256;2023-04-24T07:48:15;6.80;;;5.03;;
6527;SDS011;64597;42.664;23.256;2023-04-24T07:50:43;6.97;;;5.10;;
6527;SDS011;64597;42.664;23.256;2023-04-24T07:53:11;9.93;;;6.90;;
6527;SDS011;64597;42.664;23.256;2023-04-24T07:55:37;8.98;;;5.75;;
6527;SDS011;64597;42.664;23.256;2023-04-24T07:58:03;8.85;;;5.25;;
6527;SDS011;64597;42.664;23.256;2023-04-24T08:00:30;7.57;;;4.95;;
6527;SDS011;64597;42.664;23.256;2023-04-24T08:02:56;7.60;;;5.55;;
6527;SDS011;64597;42.664;23.256;2023-04-24T08:05:21;5.97;;;4.85;;
6527;SDS011;64597;42.664;23.256;2023-04-24T08:07:47;10.30;;;6.07;;
6527;SDS011;64597;42.664;23.256;2023-04-24T08:10:16;7.20;;;5.38;;
6527;SDS011;64597;42.664;23.256;2023-04-24T08:12:42;6.32;;;5.07;;
6527;SDS011;64597;42.664;23.256;2023-04-24T08:15:08;6.35;;;4.88;;
6527;SDS011;64597;42.664;23.256;2023-04-24T08:17:35;6.45;;;5.10;;
6527;SDS011;64597;42.664;23.256;2023-04-24T08:20:04;7.43;;;5.38;;
6527;SDS011;64597;42.664;23.256;2023-04-24T08:22:31;7.20;;;5.40;;
6527;SDS011;64597;42.664;23.256;2023-04-24T08:24:57;8.52;;;4.85;;
6527;SDS011;64597;42.664;23.256;2023-04-24T08:27:25;5.43;;;4.93;;
6527;SDS011;64597;42.664;23.256;2023-04-24T08:29:52;12.27;;;8.30;;
6527;SDS011;64597;42.664;23.256;2023-04-24T08:32:18;6.25;;;5.18;;
6527;SDS011;64597;42.664;23.256;2023-04-24T08:34:44;7.45;;;5.32;;
6527;SDS011;64597;42.664;23.256;2023-04-24T08:37:10;6.13;;;4.63;;
6527;SDS011;64597;42.664;23.256;2023-04-24T08:39:36;9.40;;;5.47;;
6527;SDS011;64597;42.664;23.256;2023-04-24T08:42:02;8.45;;;5.93;;
6527;SDS011;64597;42.664;23.256;2023-04-24T08:44:33;8.18;;;5.80;;
6527;SDS011;64597;42.664;23.256;2023-04-24T08:47:04;7.32;;;5.30;;
6527;SDS011;64597;42.664;23.256;2023-04-24T08:49:30;6.50;;;5.43;;
6527;SDS011;64597;42.664;23.256;2023-04-24T08:51:57;7.43;;;5.25;;
6527;SDS011;64597;42.664;23.256;2023-04-24T08:59:18;6.28;;;5.50;;
6527;SDS011;64597;42.664;23.256;2023-04-24T09:01:46;6.68;;;4.90;;
6527;SDS011;64597;42.664;23.256;2023-04-24T09:04:13;7.00;;;4.78;;
6527;SDS011;64597;42.664;23.256;2023-04-24T09:06:41;8.48;;;5.20;;
6527;SDS011;64597;42.664;23.256;2023-04-24T09:09:07;7.57;;;5.30;;
6527;SDS011;64597;42.664;23.256;2023-04-24T09:11:36;6.43;;;5.50;;
6527;SDS011;64597;42.664;23.256;2023-04-24T09:14:02;7.93;;;6.03;;
6527;SDS011;64597;42.664;23.256;2023-04-24T09:16:29;9.65;;;6.65;;
6527;SDS011;64597;42.664;23.256;2023-04-24T09:18:55;6.93;;;5.10;;
6527;SDS011;64597;42.664;23.256;2023-04-24T09:21:21;9.32;;;5.80;;
6527;SDS011;64597;42.664;23.256;2023-04-24T09:23:57;6.88;;;5.68;;
6527;SDS011;64597;42.664;23.256;2023-04-24T09:26:31;5.68;;;5.15;;
6527;SDS011;64597;42.664;23.256;2023-04-24T09:28:59;5.15;;;4.65;;
6527;SDS011;64597;42.664;23.256;2023-04-24T09:31:28;6.63;;;5.80;;
6527;SDS011;64597;42.664;23.256;2023-04-24T09:33:56;5.60;;;4.70;;
6527;SDS011;64597;42.664;23.256;2023-04-24T09:36:30;7.32;;;4.72;;
6527;SDS011;64597;42.664;23.256;2023-04-24T09:39:02;8.10;;;4.82;;
6527;SDS011;64597;42.664;23.256;2023-04-24T09:41:31;5.85;;;4.43;;
6527;SDS011;64597;42.664;23.256;2023-04-24T09:43:58;4.85;;;4.38;;
6527;SDS011;64597;42.664;23.256;2023-04-24T09:46:36;5.97;;;4.68;;
6527;SDS011;64597;42.664;23.256;2023-04-24T09:49:08;6.55;;;4.57;;
6527;SDS011;64597;42.664;23.256;2023-04-24T09:51:37;7.07;;;5.13;;
6527;SDS011;64597;42.664;23.256;2023-04-24T09:54:04;7.30;;;4.10;;
6527;SDS011;64597;42.664;23.256;2023-04-24T09:56:36;6.60;;;4.28;;
6527;SDS011;64597;42.664;23.256;2023-04-24T09:59:07;11.00;;;4.93;;
6527;SDS011;64597;42.664;23.256;2023-04-24T10:01:34;5.55;;;4.20;;
6527;SDS011;64597;42.664;23.256;2023-04-24T10:04:00;6.90;;;4.25;;
6527;SDS011;64597;42.664;23.256;2023-04-24T10:06:36;5.18;;;3.88;;
6527;SDS011;64597;42.664;23.256;2023-04-24T10:09:03;8.60;;;4.38;;
6527;SDS011;64597;42.664;23.256;2023-04-24T10:11:30;6.10;;;4.07;;
6527;SDS011;64597;42.664;23.256;2023-04-24T10:13:56;4.20;;;3.80;;
6527;SDS011;64597;42.664;23.256;2023-04-24T10:16:23;4.70;;;3.42;;
6527;SDS011;64597;42.664;23.256;2023-04-24T10:18:52;4.88;;;3.97;;
6527;SDS011;64597;42.664;23.256;2023-04-24T10:21:18;6.47;;;3.20;;
6527;SDS011;64597;42.664;23.256;2023-04-24T10:23:44;3.30;;;3.00;;
6527;SDS011;64597;42.664;23.256;2023-04-24T10:26:14;3.33;;;2.47;;
6527;SDS011;64597;42.664;23.256;2023-04-24T10:28:46;9.23;;;3.30;;
6527;SDS011;64597;42.664;23.256;2023-04-24T10:31:13;3.85;;;2.90;;
6527;SDS011;64597;42.664;23.256;2023-04-24T10:33:43;3.15;;;2.60;;
6527;SDS011;64597;42.664;23.256;2023-04-24T10:36:14;6.15;;;2.95;;
6527;SDS011;64597;42.664;23.256;2023-04-24T10:38:42;4.38;;;3.22;;
6527;SDS011;64597;42.664;23.256;2023-04-24T10:41:12;5.53;;;2.78;;
6527;SDS011;64597;42.664;23.256;2023-04-24T10:43:45;3.13;;;2.60;;
6527;SDS011;64597;42.664;23.256;2023-04-24T10:46:19;4.70;;;2.90;;
6527;SDS011;64597;42.664;23.256;2023-04-24T10:48:54;5.10;;;3.00;;
6527;SDS011;64597;42.664;23.256;2023-04-24T10:51:24;3.42;;;3.00;;
6527;SDS011;64597;42.664;23.256;2023-04-24T10:54:23;4.22;;;2.78;;
6527;SDS011;64597;42.664;23.256;2023-04-24T10:56:50;3.40;;;2.47;;
6527;SDS011;64597;42.664;23.256;2023-04-24T10:59:26;9.00;;;3.17;;
6527;SDS011;64597;42.664;23.256;2023-04-24T11:01:59;4.63;;;2.55;;
6527;SDS011;64597;42.664;23.256;2023-04-24T11:04:29;5.50;;;3.03;;
6527;SDS011;64597;42.664;23.256;2023-04-24T11:06:56;5.00;;;3.20;;
6527;SDS011;64597;42.664;23.256;2023-04-24T11:09:22;4.93;;;4.35;;
6527;SDS011;64597;42.664;23.256;2023-04-24T11:11:51;7.40;;;3.50;;
6527;SDS011;64597;42.664;23.256;2023-04-24T11:17:34;4.72;;;3.25;;
6527;SDS011;64597;42.664;23.256;2023-04-24T11:22:35;4.05;;;3.33;;
6527;SDS011;64597;42.664;23.256;2023-04-24T11:25:03;3.67;;;3.05;;
6527;SDS011;64597;42.664;23.256;2023-04-24T11:27:30;3.83;;;2.70;;
6527;SDS011;64597;42.664;23.256;2023-04-24T11:34:57;3.33;;;2.90;;
6527;SDS011;64597;42.664;23.256;2023-04-24T11:37:25;5.18;;;3.00;;
6527;SDS011;64597;42.664;23.256;2023-04-24T11:39:53;5.85;;;3.70;;
6527;SDS011;64597;42.664;23.256;2023-04-24T11:42:19;3.80;;;3.15;;
6527;SDS011;64597;42.664;23.256;2023-04-24T11:44:46;5.30;;;3.40;;
6527;SDS011;64597;42.664;23.256;2023-04-24T11:47:13;5.57;;;3.63;;
6527;SDS011;64597;42.664;23.256;2023-04-24T11:49:38;5.40;;;4.07;;
6527;SDS011;64597;42.664;23.256;2023-04-24T11:52:04;6.72;;;3.47;;
6527;SDS011;64597;42.664;23.256;2023-04-24T11:54:30;6.63;;;3.55;;
6527;SDS011;64597;42.664;23.256;2023-04-24T11:56:56;3.58;;;3.10;;
6527;SDS011;64597;42.664;23.256;2023-04-24T11:59:22;3.60;;;2.67;;
6527;SDS011;64597;42.664;23.256;2023-04-24T12:01:48;4.20;;;3.17;;
6527;SDS011;64597;42.664;23.256;2023-04-24T12:04:15;4.28;;;3.13;;
6527;SDS011;64597;42.664;23.256;2023-04-24T12:06:58;4.22;;;3.38;;
6527;SDS011;64597;42.664;23.256;2023-04-24T12:09:26;6.07;;;4.20;;
6527;SDS011;64597;42.664;23.256;2023-04-24T12:11:56;4.13;;;3.50;;
6527;SDS011;64597;42.664;23.256;2023-04-24T12:14:23;4.55;;;3.35;;
6527;SDS011;64597;42.664;23.256;2023-04-24T12:16:50;5.07;;;3.63;;
6527;SDS011;64597;42.664;23.256;2023-04-24T12:19:20;5.57;;;3.47;;
6527;SDS011;64597;42.664;23.256;2023-04-24T12:22:00;3.47;;;2.95;;
6527;SDS011;64597;42.664;23.256;2023-04-24T12:24:27;3.10;;;2.80;;
6527;SDS011;64597;42.664;23.256;2023-04-24T12:26:54;8.88;;;4.13;;
6527;SDS011;64597;42.664;23.256;2023-04-24T12:29:21;4.47;;;3.38;;
6527;SDS011;64597;42.664;23.256;2023-04-24T12:31:48;4.35;;;3.53;;
6527;SDS011;64597;42.664;23.256;2023-04-24T12:34:19;5.22;;;2.90;;
6527;SDS011;64597;42.664;23.256;2023-04-24T12:36:48;3.55;;;2.72;;
6527;SDS011;64597;42.664;23.256;2023-04-24T12:39:17;6.03;;;3.42;;
6527;SDS011;64597;42.664;23.256;2023-04-24T12:41:54;4.30;;;3.42;;
6527;SDS011;64597;42.664;23.256;2023-04-24T12:44:30;4.45;;;4.05;;
6527;SDS011;64597;42.664;23.256;2023-04-24T12:49:23;4.10;;;3.67;;
6527;SDS011;64597;42.664;23.256;2023-04-24T12:51:50;4.68;;;3.45;;
6527;SDS011;64597;42.664;23.256;2023-04-24T12:54:16;6.75;;;3.78;;
6527;SDS011;64597;42.664;23.256;2023-04-24T12:56:43;5.35;;;3.92;;
6527;SDS011;64597;42.664;23.256;2023-04-24T12:59:09;4.68;;;4.13;;
6527;SDS011;64597;42.664;23.256;2023-04-24T13:01:35;8.10;;;4.28;;
6527;SDS011;64597;42.664;23.256;2023-04-24T13:04:01;7.10;;;3.28;;
6527;SDS011;64597;42.664;23.256;2023-04-24T13:06:26;4.35;;;3.80;;
6527;SDS011;64597;42.664;23.256;2023-04-24T13:08:52;4.88;;;3.38;;
6527;SDS011;64597;42.664;23.256;2023-04-24T13:11:19;3.50;;;3.10;;
6527;SDS011;64597;42.664;23.256;2023-04-24T13:13:46;4.07;;;3.28;;
6527;SDS011;64597;42.664;23.256;2023-04-24T13:16:12;3.53;;;3.22;;
6527;SDS011;64597;42.664;23.256;2023-04-24T13:18:37;5.20;;;3.17;;
6527;SDS011;64597;42.664;23.256;2023-04-24T13:21:02;4.38;;;3.13;;
6527;SDS011;64597;42.664;23.256;2023-04-24T13:23:28;3.92;;;2.92;;
6527;SDS011;64597;42.664;23.256;2023-04-24T13:25:54;3.85;;;3.03;;
6527;SDS011;64597;42.664;23.256;2023-04-24T13:28:22;7.93;;;3.70;;
6527;SDS011;64597;42.664;23.256;2023-04-24T13:30:48;7.38;;;3.92;;
6527;SDS011;64597;42.664;23.256;2023-04-24T13:33:14;4.47;;;2.80;;
6527;SDS011;64597;42.664;23.256;2023-04-24T13:35:40;3.65;;;3.00;;
6527;SDS011;64597;42.664;23.256;2023-04-24T13:38:06;6.65;;;2.88;;
6527;SDS011;64597;42.664;23.256;2023-04-24T13:40:32;4.90;;;3.05;;
6527;SDS011;64597;42.664;23.256;2023-04-24T13:42:58;4.30;;;3.35;;
6527;SDS011;64597;42.664;23.256;2023-04-24T13:45:25;3.88;;;2.95;;
6527;SDS011;64597;42.664;23.256;2023-04-24T13:50:19;4.25;;;3.20;;
6527;SDS011;64597;42.664;23.256;2023-04-24T13:52:46;3.15;;;2.78;;
6527;SDS011;64597;42.664;23.256;2023-04-24T13:55:12;3.42;;;2.80;;
6527;SDS011;64597;42.664;23.256;2023-04-24T13:57:38;3.50;;;2.70;;
6527;SDS011;64597;42.664;23.256;2023-04-24T14:00:04;5.05;;;3.03;;
6527;SDS011;64597;42.664;23.256;2023-04-24T14:02:31;7.82;;;3.65;;
6527;SDS011;64597;42.664;23.256;2023-04-24T14:04:57;3.45;;;2.85;;
6527;SDS011;64597;42.664;23.256;2023-04-24T14:07:25;2.92;;;2.70;;
6527;SDS011;64597;42.664;23.256;2023-04-24T14:09:51;4.43;;;3.05;;
6527;SDS011;64597;42.664;23.256;2023-04-24T14:12:18;3.75;;;2.72;;
6527;SDS011;64597;42.664;23.256;2023-04-24T14:14:45;6.38;;;3.10;;
6527;SDS011;64597;42.664;23.256;2023-04-24T14:17:13;3.33;;;3.00;;
6527;SDS011;64597;42.664;23.256;2023-04-24T14:19:39;6.20;;;3.28;;
6527;SDS011;64597;42.664;23.256;2023-04-24T14:22:05;5.63;;;3.40;;
6527;SDS011;64597;42.664;23.256;2023-04-24T14:24:32;3.67;;;2.75;;
6527;SDS011;64597;42.664;23.256;2023-04-24T14:26:59;4.93;;;2.97;;
6527;SDS011;64597;42.664;23.256;2023-04-24T14:29:26;4.68;;;2.80;;
6527;SDS011;64597;42.664;23.256;2023-04-24T14:31:54;3.80;;;2.92;;
6527;SDS011;64597;42.664;23.256;2023-04-24T14:34:21;4.00;;;3.05;;
6527;SDS011;64597;42.664;23.256;2023-04-24T14:36:47;4.15;;;2.65;;
6527;SDS011;64597;42.664;23.256;2023-04-24T14:39:14;4.53;;;2.53;;
6527;SDS011;64597;42.664;23.256;2023-04-24T14:41:40;3.33;;;3.03;;
6527;SDS011;64597;42.664;23.256;2023-04-24T14:44:07;3.60;;;3.15;;
6527;SDS011;64597;42.664;23.256;2023-04-24T14:46:32;4.35;;;2.60;;
6527;SDS011;64597;42.664;23.256;2023-04-24T14:48:59;5.00;;;2.72;;
6527;SDS011;64597;42.664;23.256;2023-04-24T14:53:52;4.43;;;2.83;;
6527;SDS011;64597;42.664;23.256;2023-04-24T14:56:19;4.20;;;3.33;;
6527;SDS011;64597;42.664;23.256;2023-04-24T14:58:45;6.07;;;3.42;;
6527;SDS011;64597;42.664;23.256;2023-04-24T15:01:11;5.22;;;3.22;;
6527;SDS011;64597;42.664;23.256;2023-04-24T15:03:37;3.50;;;2.72;;
6527;SDS011;64597;42.664;23.256;2023-04-24T15:06:04;3.08;;;2.78;;
6527;SDS011;64597;42.664;23.256;2023-04-24T15:08:31;4.43;;;2.60;;
6527;SDS011;64597;42.664;23.256;2023-04-24T15:10:58;5.88;;;3.40;;